• Join FlightAware (Why Join?)
  • Login
  • US Flag 
03:18AM EST


 

Airport Tracker/Info


-or-


 

Live Flight TrackerFlight Track Log ✈ TCF3494 ✈ 14-Jul-2013 ✈ KORD - KLGA

Flight Track Log - Related Links

Times and Time Zones

All times are in EDT time to prevent confusion due to time zone crossing. See the TCF3494 flight status page for this flight to view local times or setup timezone preferences in your user account.

Time Position Orientation Groundspeed Altitude Reporting Facility
EDT Latitude Longitude Course Direction KTS MPH feet Rate Location/Type
09:42PM 42.0167 -87.8667 90° East 162 186 2,300  Level Chicago TRACON
09:43PM 42.0131 -87.8022 94° East 180 207 3,500 1,620 Climbing Chicago Center
09:44PM 42.0161 -87.7122 87° East 226 260 5,500 2,100 Climbing Chicago Center
09:45PM 41.9472 -87.3268 95° East  Level FlightAware Approximate
09:45PM 42.0036 -87.6067 99° East 274 315 7,900  Level Chicago Center
09:46PM 41.9370 -87.1837 95° East  Level FlightAware Approximate
09:46PM 41.9925 -87.5003 98° East 287 330 10,300  Level Chicago Center
09:47PM 41.9333 -87.0403 90° East  Level FlightAware Approximate
09:48PM 41.9333 -86.8967 90° East  Level FlightAware Approximate
09:48PM 41.9772 -87.3606 98° East 320 368 12,000  Level Chicago Center
09:49PM 41.9628 -87.2278 98° East 355 409 14,200 2,100 Climbing Chicago Center
09:50PM 41.9478 -87.0933 98° East 363 418 16,400 1,740 Climbing Chicago Center
09:51PM 41.9469 -86.9525 90° East 381 438 17,800 1,500 Climbing Chicago Center
09:52PM 41.9489 -86.8064 89° East 391 450 19,500 1,740 Climbing Chicago Center
09:53PM 41.9511 -86.6375 89° East 404 465 21,400 1,620 Climbing Chicago Center
09:54PM 41.9531 -86.4828 89° East 412 474 22,900 1,320 Climbing Chicago Center
09:55PM 41.9539 -86.3253 90° East 422 486 24,200 1,200 Climbing Chicago Center
09:56PM 41.9519 -86.1631 91° East 433 498 25,400 1,020 Climbing Chicago Center
09:57PM 41.9353 -85.9986 98° East 444 511 26,400 1,020 Climbing Chicago Center
09:58PM 41.9200 -85.8319 97° East 448 516 27,500 1,020 Climbing Chicago Center
09:59PM 41.9022 -85.6242 96° East 463 533 28,600 1,020 Climbing Chicago Center
10:00PM 41.8922 -85.4467 94° East 471 542 29,600 960 Climbing Chicago Center
10:01PM 41.8794 -85.2697 95° East 471 542 30,600 960 Climbing Chicago Center
10:02PM 41.8675 -85.0969 95° East 461 531 31,600 960 Climbing Chicago Center
10:03PM 41.8547 -84.9203 95° East 471 542 32,600 660 Climbing Chicago Center
10:04PM 41.8417 -84.7483 96° East 465 535 33,000 540 Climbing Chicago Center
10:05PM 41.8286 -84.5744 96° East 467 537 33,800 840 Climbing Chicago Center
10:06PM 41.8156 -84.4036 96° East 464 534 34,800 540 Climbing Chicago Center
10:07PM 41.8019 -84.2336 96° East 460 529 35,000 60 Climbing Chicago Center
10:08PM 41.7889 -84.0642 96° East 458 527 35,000  Level Chicago Center
10:09PM 41.7747 -83.8950 96° East 457 526 35,000  Level Chicago Center
10:10PM 41.7567 -83.7119 97° East 453 521 35,000  Level Cleveland Center
10:11PM 41.7406 -83.5386 97° East 453 521 35,000  Level Cleveland Center
10:12PM 41.7281 -83.3711 96° East 453 521 35,000  Level Cleveland Center
10:13PM 41.7153 -83.2008 96° East 453 521 35,000  Level Cleveland Center
10:14PM 41.7022 -83.0333 96° East 453 521 35,000  Level Cleveland Center
10:15PM 41.6892 -82.8661 96° East 453 521 35,000  Level Cleveland Center
10:16PM 41.6742 -82.6736 96° East 458 527 35,000  Level Cleveland Center
10:17PM 41.6583 -82.5036 97° East 458 527 35,000  Level Cleveland Center
10:18PM 41.6481 -82.3533 95° East 458 527 35,000  Level Cleveland Center
10:19PM 41.6339 -82.1861 96° East 458 527 35,000  Level Cleveland Center
10:20PM 41.6194 -82.0164 96° East 458 527 35,000  Level Cleveland Center
10:21PM 41.6050 -81.8300 96° East 463 533 35,000  Level Cleveland Center
10:22PM 41.5900 -81.6603 97° East 463 533 35,000  Level Cleveland Center
10:23PM 41.5750 -81.4936 97° East 463 533 35,000  Level Cleveland Center
10:24PM 41.5572 -81.3239 98° East 463 533 35,000  Level Cleveland Center
10:25PM 41.5417 -81.1600 97° East 458 527 35,000  Level Cleveland Center
10:26PM 41.5278 -81.0047 97° East 453 521 35,000  Level Cleveland Center
10:27PM 41.5094 -80.8411 98° East 453 521 35,000  Level Cleveland Center
10:28PM 41.4950 -80.6747 97° East 447 514 35,000  Level Cleveland Center
10:29PM 41.4783 -80.5111 98° East 447 514 35,000  Level Cleveland Center
10:30PM 41.4614 -80.3256 97° East 453 521 35,000  Level Cleveland Center
10:31PM 41.4444 -80.1622 98° East 448 516 35,000  Level Cleveland Center
10:32PM 41.4269 -79.9933 98° East 448 516 35,000  Level Cleveland Center
10:33PM 41.4072 -79.8300 99° East 448 516 35,000  Level Cleveland Center
10:34PM 41.3894 -79.6642 98° East 448 516 35,000  Level Cleveland Center
10:35PM 41.3733 -79.5011 97° East 448 516 35,000  Level Cleveland Center
10:36PM 41.3550 -79.3356 98° East 448 516 35,000  Level Cleveland Center
10:37PM 41.3364 -79.1700 98° East 448 516 35,000  Level Cleveland Center
10:38PM 41.3175 -79.0072 99° East 448 516 35,000  Level Cleveland Center
10:39PM 41.2983 -78.8392 99° East 448 516 35,000  Level Cleveland Center
10:40PM 41.2814 -78.6792 98° East 448 516 35,000  Level Cleveland Center
10:41PM 41.2617 -78.5169 99° East 448 516 35,000 -600 Level Cleveland Center
10:43PM 41.2339 -78.2814 99° East 451 519 33,600 -840 Descending New York Center
10:44PM 41.2108 -78.1161 100° East 451 519 33,000 -300 Descending New York Center
10:45PM 41.1897 -77.9511 100° East 451 519 33,000  Level New York Center
10:46PM 41.1703 -77.7889 99° East 451 519 33,000  Level New York Center
10:47PM 41.1486 -77.6242 100° East 451 519 33,000  Level New York Center
10:48PM 41.1206 -77.4586 103° East 457 526 33,000  Level New York Center
10:49PM 41.0864 -77.2875 105° East 447 514 33,000  Level New York Center
10:50PM 41.0575 -77.1250 103° East 447 514 33,000  Level New York Center
10:51PM 41.0286 -76.9653 103° East 447 514 33,000 -1,020 Level New York Center
10:52PM 40.9994 -76.8033 103° East 447 514 31,000 -2,400 Descending New York Center
10:53PM 40.9661 -76.6381 105° East 447 514 28,200 -2,820 Descending New York Center
10:54PM 40.9344 -76.4733 104° East 452 520 25,300 -2,940 Descending New York Center
10:55PM 40.9067 -76.3117 103° East 452 520 22,500 -2,760 Descending New York Center
10:56PM 40.8783 -76.1583 104° East 446 513 19,900 -2,460 Descending New York Center
10:57PM 40.8531 -76.0275 104° East 423 487 17,500 -2,700 Descending New York Center
10:58PM 40.8225 -75.8689 104° East 408 470 14,600 -2,340 Descending New York Center
10:59PM 40.7950 -75.7297 105° East 397 457 12,900 -840 Descending New York Center
11:00PM 40.7567 -75.5981 111° Southeast 383 441 13,000  Climbing New York Center
11:01PM 40.7200 -75.4778 112° Southeast 392 451 13,000  Level New York Center
11:02PM 40.6772 -75.3461 113° Southeast 392 451 13,000 -360 Level New York Center
11:03PM 40.6306 -75.2036 113° Southeast 392 451 12,300 -1,200 Descending New York Center
11:04PM 40.5894 -75.0753 113° Southeast 387 445 10,600 -1,200 Descending New York Center
11:05PM 40.5539 -74.9611 112° Southeast 387 445 10,000 -300 Descending New York Center
11:06PM 40.5000 -74.8000 114° Southeast 382 440 10,000  Level New York TRACON
11:07PM 40.4667 -74.6667 108° East 380 437 10,000  Level New York TRACON
11:08PM 40.4333 -74.5333 108° East 381 438 10,000  Level New York TRACON
11:09PM 40.4667 -74.4167 69° East 373 429 10,000  Level New York TRACON
11:10PM 40.5000 -74.3000 69° East 322 371 10,000 -840 Level New York TRACON
11:11PM 40.5333 -74.2000 66° East 294 338 8,400 -1,620 Descending New York TRACON
11:12PM 40.5833 -74.1167 52° Northeast 276 318 6,600 -1,620 Descending New York TRACON
11:13PM 40.6500 -74.0500 37° Northeast 277 319 5,000 -1,320 Descending New York TRACON
11:14PM 40.7000 -73.9667 52° Northeast 279 321 4,000 -540 Descending New York TRACON
11:15PM 40.7333 -73.8833 62° Northeast 282 325 4,000  Level New York TRACON
11:16PM 40.7833 -73.8000 52° Northeast 265 305 4,000 -480 Level New York TRACON
11:17PM 40.8167 -73.7500 49° Northeast 224 258 3,100 -1,020 Descending New York TRACON